Time;durP1;ratioP1;P1;durP2;ratioP2;P2;SDS_P1;SDS_P2;PMS_P1;PMS_P2;Temp;Humidity;BMP_temperature;BMP_pressure;BME280_temperature;BME280_humidity;BME280_pressure;Samples;Min_cycle;Max_cycle;Signal;HPM_P1;HPM_P2
2023/01/20 03:24:40;;;;;;;5.57;3.83;;;-0.60;99.90;;;;;;6246628;22;20465;-76
2023/01/20 03:27:07;;;;;;;7.90;4.50;;;-0.70;99.90;;;;;;6262697;22;20483;-88
2023/01/20 03:29:34;;;;;;;6.63;4.67;;;-0.80;99.90;;;;;;6272618;22;20397;-89
2023/01/20 03:32:03;;;;;;;8.60;5.13;;;-1.00;99.90;;;;;;6272806;22;20417;-87
2023/01/20 03:34:34;;;;;;;5.07;3.47;;;-0.90;99.90;;;;;;6272573;22;20434;-89
2023/01/20 03:37:03;;;;;;;11.33;4.50;;;-1.00;99.90;;;;;;6274393;22;20445;-88
2023/01/20 03:39:31;;;;;;;4.90;3.63;;;-0.90;99.90;;;;;;6272401;23;20448;-91
2023/01/20 03:42:07;;;;;;;4.73;4.20;;;-0.70;99.90;;;;;;6271167;22;20413;-88
2023/01/20 03:44:48;;;;;;;6.80;3.37;;;-0.70;99.90;;;;;;6271103;23;20412;-90
2023/01/20 03:47:23;;;;;;;4.50;3.53;;;-0.80;99.90;;;;;;6271489;22;20486;-90
2023/01/20 03:49:55;;;;;;;6.90;3.47;;;-0.90;99.90;;;;;;6271492;22;20432;-88
2023/01/20 03:52:31;;;;;;;5.73;4.07;;;-0.90;99.90;;;;;;6272425;22;20461;-88
2023/01/20 03:55:03;;;;;;;4.80;3.20;;;-0.90;99.90;;;;;;6267333;22;20421;-88
2023/01/20 03:57:37;;;;;;;9.50;3.70;;;-0.90;99.90;;;;;;6270566;22;20436;-89
2023/01/20 04:00:06;;;;;;;5.90;4.33;;;-0.90;99.90;;;;;;6258338;23;20417;-88
2023/01/20 04:02:34;;;;;;;6.47;5.07;;;-1.00;99.90;;;;;;6250907;23;20934;-89
2023/01/20 04:05:03;;;;;;;6.40;4.60;;;-1.20;99.90;;;;;;6254509;22;20426;-86
2023/01/20 04:20:28;;;;;;;6.13;4.77;;;-1.40;99.90;;;;;;6251653;22;20464;-88
2023/01/20 04:30:40;;;;;;;7.43;4.77;;;-1.50;99.90;;;;;;6240547;22;20463;-88
2023/01/20 04:33:08;;;;;;;9.43;4.97;;;-1.60;99.90;;;;;;6269752;23;20463;-88
2023/01/20 04:35:36;;;;;;;7.47;5.70;;;-1.60;99.90;;;;;;6268589;22;20485;-86
2023/01/20 04:38:03;;;;;;;7.87;5.03;;;-1.60;99.90;;;;;;6267371;23;20417;-87
2023/01/20 04:43:08;;;;;;;9.10;5.27;;;-1.40;99.90;;;;;;6236280;22;20478;-87
2023/01/20 04:45:35;;;;;;;8.43;5.97;;;0.00;99.90;;;;;;6248228;22;20466;-88
2023/01/20 04:48:07;;;;;;;7.00;5.73;;;-1.60;99.90;;;;;;6261195;23;20459;-89
2023/01/20 04:50:38;;;;;;;11.03;6.20;;;-2.00;99.90;;;;;;6260896;22;20413;-88
2023/01/20 04:53:09;;;;;;;9.47;6.20;;;-1.10;99.90;;;;;;6268474;22;20433;-85
2023/01/20 04:58:11;;;;;;;10.20;5.90;;;-1.40;99.90;;;;;;6242226;22;20874;-74
2023/01/20 05:00:38;;;;;;;10.70;6.20;;;-1.50;99.90;;;;;;6239318;23;20416;-73
2023/01/20 05:03:05;;;;;;;11.73;6.77;;;-1.60;99.90;;;;;;6239835;23;20417;-73
2023/01/20 05:05:32;;;;;;;8.57;6.37;;;-1.50;99.90;;;;;;6240317;23;20409;-74
2023/01/20 05:07:59;;;;;;;14.87;8.90;;;-1.50;99.90;;;;;;6242917;23;20836;-80
2023/01/20 05:10:27;;;;;;;10.63;6.63;;;-1.70;99.90;;;;;;6245966;23;20420;-76
2023/01/20 05:49:12;;;;;;;18.50;10.80;;;-1.90;99.90;;;;;;6215769;22;20810;-75
2023/01/20 05:51:38;;;;;;;19.63;11.10;;;-1.90;99.90;;;;;;6242009;23;20397;-76
2023/01/20 06:01:51;;;;;;;15.27;9.73;;;-2.00;99.90;;;;;;6204759;22;20441;-72
2023/01/20 06:04:19;;;;;;;19.50;10.77;;;-2.10;99.90;;;;;;6240687;23;21236;-73
2023/01/20 06:06:46;;;;;;;29.13;10.57;;;-2.00;99.90;;;;;;6240442;23;20414;-73
2023/01/20 06:09:13;;;;;;;18.70;10.90;;;-2.00;99.90;;;;;;6239899;23;20417;-74
2023/01/20 06:11:40;;;;;;;16.17;8.07;;;-2.10;99.90;;;;;;6239678;23;20401;-75
2023/01/20 06:14:06;;;;;;;12.33;7.63;;;-2.10;99.90;;;;;;6240286;23;20449;-73
2023/01/20 06:16:33;;;;;;;14.03;7.80;;;-2.10;99.90;;;;;;6239745;23;20413;-73
2023/01/20 06:19:00;;;;;;;13.03;8.10;;;-2.10;99.90;;;;;;6239894;23;20416;-73
2023/01/20 06:21:28;;;;;;;11.07;7.83;;;-2.10;99.90;;;;;;6239589;23;20417;-74
2023/01/20 06:23:55;;;;;;;13.73;7.90;;;-2.00;99.90;;;;;;6239645;23;20410;-73
2023/01/20 06:26:22;;;;;;;13.87;7.03;;;-2.00;99.90;;;;;;6239690;23;20405;-74
2023/01/20 06:28:49;;;;;;;9.60;6.40;;;-2.10;99.90;;;;;;6237506;23;20532;-75
2023/01/20 06:31:16;;;;;;;12.73;8.20;;;-2.10;99.90;;;;;;6237519;23;20416;-75
2023/01/20 06:33:43;;;;;;;9.07;5.53;;;-2.10;99.90;;;;;;6238036;23;20745;-75
2023/01/20 06:36:12;;;;;;;15.63;7.67;;;-2.20;99.90;;;;;;6238974;23;20408;-75
2023/01/20 06:38:40;;;;;;;11.77;7.30;;;-2.10;99.90;;;;;;6238971;23;20405;-75
2023/01/20 06:41:09;;;;;;;9.27;6.67;;;-2.10;99.90;;;;;;6238809;23;20409;-75
2023/01/20 06:43:38;;;;;;;11.67;7.33;;;-2.10;99.90;;;;;;6238750;23;20792;-75
2023/01/20 06:46:07;;;;;;;10.10;7.57;;;-2.10;99.90;;;;;;6239046;23;20448;-75
2023/01/20 06:48:35;;;;;;;14.83;7.70;;;-2.10;99.90;;;;;;6239039;23;20464;-75
2023/01/20 06:51:02;;;;;;;18.13;8.30;;;-2.10;99.90;;;;;;6238758;23;20452;-74
2023/01/20 06:53:29;;;;;;;14.30;8.53;;;-2.10;99.90;;;;;;6238377;23;20409;-75
2023/01/20 06:55:58;;;;;;;13.83;9.70;;;-2.10;99.90;;;;;;6238611;23;20414;-75
2023/01/20 06:58:26;;;;;;;13.40;9.43;;;-2.10;99.90;;;;;;6238640;23;20918;-75
2023/01/20 07:00:53;;;;;;;13.70;9.20;;;-2.00;99.90;;;;;;6239113;23;20393;-74
2023/01/20 07:03:20;;;;;;;13.93;8.57;;;-2.10;99.90;;;;;;6238925;23;20444;-75
2023/01/20 07:05:54;;;;;;;14.43;10.13;;;-2.10;99.90;;;;;;6239015;23;20447;-75
2023/01/20 07:08:21;;;;;;;11.40;8.10;;;-2.10;99.90;;;;;;6239157;23;20919;-75
2023/01/20 07:10:48;;;;;;;16.43;10.20;;;-2.10;99.90;;;;;;6238818;23;20416;-75
2023/01/20 07:13:16;;;;;;;19.27;10.97;;;-2.10;99.90;;;;;;6239004;23;20405;-75
2023/01/20 07:15:43;;;;;;;15.47;9.50;;;-2.10;99.90;;;;;;6240205;23;20721;-74
2023/01/20 07:18:09;;;;;;;13.60;9.50;;;-2.10;99.90;;;;;;6239930;23;20417;-75
2023/01/20 07:20:37;;;;;;;14.37;9.77;;;-2.10;99.90;;;;;;6240033;23;20417;-75
2023/01/20 07:23:04;;;;;;;11.13;8.40;;;-2.10;99.90;;;;;;6238945;23;20496;-75
2023/01/20 07:25:31;;;;;;;11.43;8.50;;;-2.10;99.90;;;;;;6238737;23;20815;-75
2023/01/20 07:27:58;;;;;;;13.83;9.20;;;-2.10;99.90;;;;;;6239379;23;20983;-74
2023/01/20 07:30:26;;;;;;;15.90;10.07;;;-2.20;99.90;;;;;;6238941;23;20405;-74
2023/01/20 07:32:54;;;;;;;21.37;12.73;;;-2.10;99.90;;;;;;6239700;23;20503;-74
2023/01/20 07:35:20;;;;;;;17.23;10.80;;;-2.10;99.90;;;;;;6246065;23;20519;-76
2023/01/20 07:37:47;;;;;;;18.77;12.33;;;-2.10;99.90;;;;;;6238822;23;20823;-75
2023/01/20 07:40:14;;;;;;;20.10;10.30;;;-2.00;99.90;;;;;;6239847;23;20410;-73
2023/01/20 07:42:41;;;;;;;19.13;12.97;;;-2.00;99.90;;;;;;6250287;23;20405;-80
2023/01/20 07:45:08;;;;;;;19.77;12.80;;;-2.00;99.90;;;;;;6250987;23;20417;-81
2023/01/20 07:47:36;;;;;;;16.80;12.27;;;-2.10;99.90;;;;;;6252389;23;20442;-79
2023/01/20 07:50:04;;;;;;;15.07;8.03;;;-2.10;99.90;;;;;;6253770;23;20418;-81
2023/01/20 07:55:09;;;;;;;15.67;10.60;;;-2.10;99.90;;;;;;6257401;22;20455;-80
2023/01/20 07:57:36;;;;;;;18.30;10.67;;;-2.40;99.90;;;;;;6240479;22;20453;-71
2023/01/20 08:00:04;;;;;;;13.27;9.30;;;-2.10;99.90;;;;;;6243802;22;20397;-79
2023/01/20 08:05:08;;;;;;;13.00;9.87;;;-1.90;99.90;;;;;;6234352;22;20914;-76
2023/01/20 08:07:35;;;;;;;17.13;10.40;;;-1.90;99.90;;;;;;6240330;23;20450;-77
2023/01/20 08:10:01;;;;;;;16.73;10.30;;;-1.90;99.90;;;;;;6240474;23;20406;-76
2023/01/20 08:12:29;;;;;;;15.30;9.93;;;-1.80;99.90;;;;;;6241582;23;20408;-74
2023/01/20 08:14:56;;;;;;;13.10;9.43;;;-1.80;99.90;;;;;;6243981;23;20432;-75
2023/01/20 08:17:23;;;;;;;15.27;8.83;;;-1.80;99.90;;;;;;6246233;23;20490;-75
2023/01/20 08:19:49;;;;;;;16.77;8.67;;;-1.80;99.90;;;;;;6243420;23;20437;-75
2023/01/20 08:22:18;;;;;;;16.73;9.00;;;-1.50;99.90;;;;;;6243689;23;20442;-74
2023/01/20 08:24:44;;;;;;;15.17;10.50;;;-1.50;99.90;;;;;;6244401;23;20401;-85
2023/01/20 08:27:11;;;;;;;12.37;9.03;;;-1.50;99.90;;;;;;6252926;23;20410;-79
2023/01/20 08:29:38;;;;;;;16.27;10.20;;;-1.70;99.90;;;;;;6253374;23;20512;-80
2023/01/20 08:32:05;;;;;;;15.40;8.30;;;-1.70;99.90;;;;;;6256489;23;20390;-81
2023/01/20 08:34:34;;;;;;;18.37;10.33;;;-1.60;99.90;;;;;;6255537;23;20500;-80
2023/01/20 08:37:01;;;;;;;20.13;10.47;;;-1.70;99.90;;;;;;6257311;23;20447;-83
2023/01/20 08:39:29;;;;;;;17.33;10.10;;;-1.60;99.90;;;;;;6241902;23;20413;-71
2023/01/20 08:41:56;;;;;;;15.67;10.40;;;-1.70;99.90;;;;;;6241118;23;20411;-72
2023/01/20 08:44:23;;;;;;;17.10;9.47;;;-1.70;99.90;;;;;;6235349;23;20408;-73
2023/01/20 08:46:51;;;;;;;14.80;10.63;;;-1.70;99.90;;;;;;6240988;23;20788;-74
2023/01/20 08:49:20;;;;;;;14.73;10.80;;;-1.70;99.90;;;;;;6243838;23;20452;-72
2023/01/20 08:51:47;;;;;;;16.63;9.90;;;-1.70;99.90;;;;;;6240881;23;20448;-73
2023/01/20 08:54:14;;;;;;;15.83;11.87;;;-1.70;99.90;;;;;;6241593;23;20409;-72
2023/01/20 08:56:42;;;;;;;16.47;10.57;;;-1.60;99.90;;;;;;6242445;23;20475;-71
2023/01/20 08:59:11;;;;;;;16.33;9.40;;;-1.60;99.90;;;;;;6242797;23;20460;-72
2023/01/20 09:01:38;;;;;;;14.37;9.70;;;-1.70;99.90;;;;;;6264231;22;20389;-80
2023/01/20 09:04:14;;;;;;;17.07;10.80;;;-1.50;99.90;;;;;;6274170;22;20468;-81
2023/01/20 09:06:51;;;;;;;13.67;11.27;;;-1.60;99.90;;;;;;6271895;23;20402;-81
2023/01/20 09:09:20;;;;;;;14.30;8.30;;;-1.60;99.90;;;;;;6273352;23;20421;-81
2023/01/20 09:11:52;;;;;;;14.17;9.60;;;-1.40;99.90;;;;;;6273184;23;20474;-81
2023/01/20 09:14:20;;;;;;;10.00;6.80;;;-1.40;99.90;;;;;;6270792;23;20500;-82
2023/01/20 09:16:47;;;;;;;11.30;8.43;;;-1.20;99.90;;;;;;6266927;23;20465;-90
2023/01/20 09:19:14;;;;;;;13.00;8.13;;;-1.10;99.90;;;;;;6260309;23;20412;-85
2023/01/20 09:21:41;;;;;;;14.87;8.17;;;-0.80;99.90;;;;;;6253387;23;20786;-82
2023/01/20 09:24:08;;;;;;;10.10;6.97;;;-0.80;99.90;;;;;;6261221;23;20398;-88
2023/01/20 09:26:40;;;;;;;16.47;9.43;;;-1.00;99.90;;;;;;6253059;22;20389;-80
2023/01/20 09:29:11;;;;;;;17.30;8.77;;;-1.80;99.90;;;;;;6253808;22;20523;-78
2023/01/20 09:31:38;;;;;;;15.73;9.40;;;-1.40;99.90;;;;;;6236616;23;20408;-72
2023/01/20 09:34:05;;;;;;;12.67;6.83;;;-1.40;99.90;;;;;;6234554;23;20456;-72
2023/01/20 09:36:32;;;;;;;10.90;7.70;;;-1.00;99.90;;;;;;6235306;23;20413;-73
2023/01/20 09:44:46;;;;;;;9.13;6.90;;;-0.80;99.90;;;;;;6235623;23;20520;-74
2023/01/20 09:47:24;;;;;;;13.17;8.20;;;-0.90;99.90;;;;;;6235217;23;20401;-74
2023/01/20 09:53:06;;;;;;;12.10;6.57;;;-1.10;99.90;;;;;;6236376;23;20376;-73
2023/01/20 09:55:43;;;;;;;9.70;6.00;;;-1.20;99.90;;;;;;6236340;23;20500;-73
2023/01/20 09:58:25;;;;;;;12.10;5.40;;;-1.10;99.90;;;;;;6236593;23;20420;-72
2023/01/20 10:00:59;;;;;;;9.47;6.70;;;-1.10;99.90;;;;;;6236681;23;20398;-73
2023/01/20 10:03:35;;;;;;;10.17;7.00;;;-1.00;99.90;;;;;;6236294;23;20441;-72
2023/01/20 10:06:08;;;;;;;10.83;5.97;;;-1.10;99.90;;;;;;6236269;23;20439;-72
2023/01/20 10:08:43;;;;;;;8.63;6.30;;;-1.20;99.90;;;;;;6237168;23;20434;-72
2023/01/20 10:11:14;;;;;;;11.70;6.87;;;-1.20;99.90;;;;;;6244822;23;20404;-72
2023/01/20 10:13:46;;;;;;;9.60;7.43;;;-1.00;99.90;;;;;;6244965;23;20397;-73
2023/01/20 10:16:26;;;;;;;12.03;7.00;;;-1.00;99.90;;;;;;6237307;23;20443;-73
2023/01/20 10:18:58;;;;;;;8.87;5.47;;;-0.90;99.90;;;;;;6236708;23;20394;-72
2023/01/20 10:21:31;;;;;;;6.77;4.37;;;-1.00;99.90;;;;;;6235776;23;20378;-73
2023/01/20 10:24:04;;;;;;;7.20;5.43;;;-0.70;99.90;;;;;;6236273;23;20382;-72
2023/01/20 10:26:38;;;;;;;8.30;4.47;;;-0.40;99.90;;;;;;6236734;23;20425;-73
2023/01/20 10:29:09;;;;;;;5.60;4.20;;;0.10;99.90;;;;;;6234314;23;21125;-75
2023/01/20 10:31:43;;;;;;;5.30;3.87;;;-0.10;99.90;;;;;;6235932;23;20836;-74
2023/01/20 10:34:12;;;;;;;6.13;4.60;;;-0.30;99.90;;;;;;6235148;23;20746;-74
2023/01/20 10:36:44;;;;;;;4.57;4.00;;;-0.60;99.90;;;;;;6234688;23;20484;-76
2023/01/20 10:39:17;;;;;;;5.97;4.20;;;-0.70;99.90;;;;;;6235148;23;20393;-75
2023/01/20 10:41:48;;;;;;;6.90;5.07;;;-0.90;99.90;;;;;;6234737;23;20397;-75
2023/01/20 10:44:16;;;;;;;5.83;4.00;;;-0.80;99.90;;;;;;6235382;23;20973;-74
2023/01/20 10:47:00;;;;;;;6.87;4.47;;;-0.80;99.90;;;;;;6236057;23;20415;-76
2023/01/20 10:49:51;;;;;;;7.00;5.43;;;-0.90;99.90;;;;;;6235723;23;20893;-76
2023/01/20 10:52:32;;;;;;;6.43;3.90;;;-0.90;99.90;;;;;;6234877;23;20417;-75
2023/01/20 10:55:07;;;;;;;6.33;4.30;;;-0.90;99.90;;;;;;6235588;23;20762;-76
2023/01/20 10:57:35;;;;;;;5.40;4.50;;;-0.90;99.90;;;;;;6235169;23;20400;-76
2023/01/20 11:00:05;;;;;;;4.77;3.63;;;-0.80;99.90;;;;;;6234706;23;20496;-77
2023/01/20 11:02:36;;;;;;;5.00;3.90;;;-0.80;99.90;;;;;;6234965;23;20913;-77
2023/01/20 11:05:16;;;;;;;5.57;4.63;;;-0.80;99.90;;;;;;6234359;23;21008;-76
2023/01/20 11:07:45;;;;;;;4.73;3.97;;;-0.80;99.90;;;;;;6235555;23;20472;-77
2023/01/20 11:10:15;;;;;;;6.20;5.13;;;-0.80;99.90;;;;;;6238289;23;20449;-77
2023/01/20 11:12:44;;;;;;;5.60;4.40;;;-0.80;99.90;;;;;;6244017;23;20510;-77
2023/01/20 11:15:18;;;;;;;7.47;4.63;;;-0.80;99.90;;;;;;6242505;23;20555;-77
2023/01/20 11:17:47;;;;;;;5.80;3.50;;;-0.80;99.90;;;;;;6243654;23;20480;-77
2023/01/20 11:20:20;;;;;;;7.80;4.37;;;-0.40;99.90;;;;;;6236357;23;20421;-77
2023/01/20 11:22:49;;;;;;;12.90;8.20;;;-0.20;99.90;;;;;;6236470;23;20405;-77
2023/01/20 11:25:26;;;;;;;5.87;4.40;;;-0.40;99.90;;;;;;6235458;23;20413;-77
2023/01/20 11:27:54;;;;;;;5.00;3.40;;;0.00;99.90;;;;;;6237541;23;20476;-79
2023/01/20 11:30:27;;;;;;;5.00;3.20;;;0.20;99.90;;;;;;6237382;23;20451;-79
2023/01/20 11:33:19;;;;;;;8.13;4.20;;;0.50;99.90;;;;;;6237991;23;20417;-79
2023/01/20 11:36:00;;;;;;;6.33;4.10;;;0.10;99.90;;;;;;6237259;23;20424;-79
2023/01/20 11:38:29;;;;;;;3.87;3.47;;;-0.30;99.90;;;;;;6238501;23;20445;-75
2023/01/20 11:40:57;;;;;;;4.87;4.13;;;-0.40;99.90;;;;;;6236431;23;20410;-75
2023/01/20 11:43:29;;;;;;;6.37;4.37;;;-0.30;99.90;;;;;;6236414;23;20418;-75
2023/01/20 11:46:11;;;;;;;6.00;4.10;;;-0.30;99.90;;;;;;6236821;23;20853;-75
2023/01/20 11:48:39;;;;;;;7.93;5.10;;;-0.40;99.90;;;;;;6236050;23;21018;-78
2023/01/20 11:51:21;;;;;;;5.40;4.90;;;-0.10;99.90;;;;;;6235404;23;20417;-75
2023/01/20 11:53:48;;;;;;;7.40;4.97;;;-0.20;99.90;;;;;;6234221;23;20432;-75
2023/01/20 11:56:19;;;;;;;6.30;5.57;;;-0.30;99.90;;;;;;6234763;23;20413;-74
2023/01/20 11:58:53;;;;;;;9.23;6.20;;;-0.40;99.90;;;;;;6235698;23;20437;-74
2023/01/20 12:01:25;;;;;;;11.90;6.30;;;-0.30;99.90;;;;;;6236252;23;20408;-76
2023/01/20 12:04:22;;;;;;;10.10;6.47;;;-0.10;99.90;;;;;;6236014;23;21070;-76
2023/01/20 12:07:00;;;;;;;7.77;7.00;;;0.10;99.90;;;;;;6235835;23;20418;-75
2023/01/20 12:09:31;;;;;;;11.07;7.90;;;-0.20;99.90;;;;;;6236656;23;20557;-75
2023/01/20 12:12:02;;;;;;;11.23;7.90;;;-0.40;99.90;;;;;;6237104;23;20398;-74
2023/01/20 12:14:34;;;;;;;9.37;6.67;;;-0.30;99.90;;;;;;6236654;23;20402;-74
2023/01/20 12:17:17;;;;;;;11.03;7.90;;;-0.40;99.90;;;;;;6235146;23;20408;-73
2023/01/20 12:19:57;;;;;;;9.03;7.00;;;-0.30;99.90;;;;;;6236193;23;20386;-73
2023/01/20 12:22:31;;;;;;;11.73;7.30;;;-0.10;99.90;;;;;;6235487;23;20424;-75
2023/01/20 12:25:09;;;;;;;13.27;7.43;;;-0.30;99.90;;;;;;6235456;23;20935;-75
2023/01/20 12:27:41;;;;;;;13.07;8.30;;;-0.50;99.90;;;;;;6235073;23;20475;-75
2023/01/20 12:30:40;;;;;;;17.77;10.37;;;-0.60;99.90;;;;;;6235162;23;20437;-75
2023/01/20 12:33:22;;;;;;;16.50;10.97;;;-0.80;99.90;;;;;;6234457;23;20431;-75
2023/01/20 12:36:25;;;;;;;21.67;12.20;;;-0.70;99.90;;;;;;6234211;23;20388;-76
2023/01/20 12:39:16;;;;;;;16.63;11.50;;;-0.60;99.90;;;;;;6227509;23;20417;-77
2023/01/20 12:42:28;;;;;;;22.60;11.53;;;-0.70;99.90;;;;;;6235900;23;20493;-75
2023/01/20 12:44:59;;;;;;;17.67;11.10;;;-0.60;99.90;;;;;;6234976;23;20768;-75
2023/01/20 12:47:43;;;;;;;16.43;10.17;;;-0.70;99.90;;;;;;6235157;23;20401;-75
2023/01/20 12:50:23;;;;;;;19.07;13.90;;;-0.70;99.90;;;;;;6235455;23;20445;-72
2023/01/20 12:53:03;;;;;;;16.93;10.40;;;-0.70;99.90;;;;;;6235488;23;20409;-74
2023/01/20 12:55:44;;;;;;;17.20;11.77;;;-0.80;99.90;;;;;;6236077;23;20402;-75
2023/01/20 12:58:20;;;;;;;22.37;12.30;;;-0.90;99.90;;;;;;6234350;23;20497;-74
2023/01/20 13:01:05;;;;;;;18.10;12.67;;;-1.00;99.90;;;;;;6235163;23;20885;-75
2023/01/20 13:03:57;;;;;;;23.10;12.50;;;-2.10;99.90;;;;;;6235837;23;20398;-75
2023/01/20 13:06:48;;;;;;;22.00;14.33;;;-1.10;99.90;;;;;;6235605;23;20532;-75
2023/01/20 13:09:43;;;;;;;23.50;13.43;;;-1.00;99.90;;;;;;6235162;23;20452;-74
2023/01/20 13:12:24;;;;;;;23.10;13.87;;;-0.80;99.90;;;;;;6235367;23;20906;-76
2023/01/20 13:14:55;;;;;;;18.93;13.70;;;-0.70;99.90;;;;;;6237087;23;20969;-76
2023/01/20 13:17:29;;;;;;;24.40;15.27;;;-0.80;99.90;;;;;;6235666;23;20394;-76
2023/01/20 13:19:59;;;;;;;19.77;13.13;;;-0.80;99.90;;;;;;6235797;23;20400;-76
2023/01/20 13:22:26;;;;;;;17.27;12.43;;;-0.70;99.90;;;;;;6235945;23;20401;-76
2023/01/20 13:24:55;;;;;;;18.13;12.03;;;-0.80;99.90;;;;;;6236477;23;20813;-77
2023/01/20 13:27:28;;;;;;;25.37;15.27;;;-0.90;99.90;;;;;;6236610;23;20809;-74
2023/01/20 13:29:57;;;;;;;25.30;15.80;;;-1.00;99.90;;;;;;6238951;23;20444;-76
2023/01/20 13:32:33;;;;;;;24.30;15.10;;;-1.00;99.90;;;;;;6244493;23;20444;-76
2023/01/20 13:35:01;;;;;;;22.10;13.10;;;-1.00;99.90;;;;;;6241852;23;20420;-76
2023/01/20 13:37:31;;;;;;;21.53;11.43;;;-1.10;99.90;;;;;;6242851;23;20416;-76
2023/01/20 13:39:59;;;;;;;21.70;15.67;;;-1.10;99.90;;;;;;6243499;23;20417;-76
2023/01/20 13:42:52;;;;;;;26.93;15.90;;;-1.00;99.90;;;;;;6240983;23;20406;-76
2023/01/20 13:45:22;;;;;;;22.63;14.20;;;-1.00;99.90;;;;;;6240644;23;20397;-76
2023/01/20 13:47:57;;;;;;;20.00;13.03;;;-1.10;99.90;;;;;;6237302;23;20958;-76
2023/01/20 13:50:26;;;;;;;27.10;18.87;;;-1.00;99.90;;;;;;6236014;23;20515;-76
2023/01/20 13:53:15;;;;;;;23.20;14.87;;;-1.00;99.90;;;;;;6238089;23;20413;-76
2023/01/20 13:56:23;;;;;;;26.23;15.10;;;-1.10;99.90;;;;;;6180168;23;20432;-76
2023/01/20 13:58:51;;;;;;;23.33;15.00;;;-1.10;99.90;;;;;;6225971;23;20405;-76
2023/01/20 14:01:18;;;;;;;25.83;14.83;;;-1.00;99.90;;;;;;6241135;23;20456;-76
2023/01/20 14:04:01;;;;;;;27.97;15.83;;;-1.10;99.90;;;;;;6237444;23;20445;-76
2023/01/20 14:06:28;;;;;;;26.73;15.13;;;-1.10;99.90;;;;;;6237138;23;20389;-76
2023/01/20 14:08:55;;;;;;;20.90;14.73;;;-1.10;99.90;;;;;;6237270;23;20509;-76
2023/01/20 14:11:23;;;;;;;22.53;13.60;;;-1.10;99.90;;;;;;6237422;23;20449;-76
2023/01/20 14:13:54;;;;;;;27.83;16.40;;;-1.10;99.90;;;;;;6237645;23;20415;-76
2023/01/20 14:16:25;;;;;;;21.43;14.70;;;-0.90;99.90;;;;;;6237896;23;20405;-76
2023/01/20 14:18:53;;;;;;;29.97;17.20;;;-1.00;99.90;;;;;;6237215;23;20425;-76
2023/01/20 14:21:22;;;;;;;29.03;15.33;;;-0.90;99.90;;;;;;6238622;23;20400;-77
2023/01/20 14:23:49;;;;;;;33.93;16.90;;;-1.10;99.90;;;;;;6237780;23;20436;-76
2023/01/20 14:26:22;;;;;;;28.90;17.90;;;-0.90;99.90;;;;;;6239376;23;20421;-77
2023/01/20 14:28:52;;;;;;;35.83;19.07;;;-1.00;99.90;;;;;;6238823;23;20412;-76
2023/01/20 14:31:35;;;;;;;30.77;16.67;;;-1.00;99.90;;;;;;6238928;23;20521;-76
2023/01/20 14:34:17;;;;;;;28.30;17.10;;;-1.00;99.90;;;;;;6239495;23;20477;-77
2023/01/20 14:36:44;;;;;;;30.03;15.97;;;-1.00;99.90;;;;;;6240182;23;20394;-77
2023/01/20 14:39:18;;;;;;;26.23;17.17;;;-1.00;99.90;;;;;;6243041;23;20528;-76
2023/01/20 14:41:47;;;;;;;30.43;19.20;;;-1.00;99.90;;;;;;6244454;23;20388;-77
2023/01/20 14:44:19;;;;;;;32.63;16.20;;;-1.00;99.90;;;;;;6242121;23;20425;-77
2023/01/20 14:46:48;;;;;;;29.23;17.77;;;-1.00;99.90;;;;;;6241816;23;20408;-77
2023/01/20 14:49:17;;;;;;;26.53;15.93;;;-1.00;99.90;;;;;;6238966;23;20494;-77
2023/01/20 14:51:45;;;;;;;27.00;16.50;;;-1.00;99.90;;;;;;6238650;23;20449;-76
2023/01/20 14:54:38;;;;;;;27.60;16.70;;;-1.00;99.90;;;;;;6240001;23;21052;-76
2023/01/20 14:57:26;;;;;;;26.93;15.60;;;-1.00;99.90;;;;;;6238627;23;20915;-77
2023/01/20 15:00:15;;;;;;;26.63;16.87;;;-1.00;99.90;;;;;;6236944;23;20413;-76
2023/01/20 15:02:46;;;;;;;26.77;16.47;;;-1.10;99.90;;;;;;6237320;23;20381;-77
2023/01/20 15:05:26;;;;;;;34.33;15.77;;;-1.10;99.90;;;;;;6236911;23;20535;-75
2023/01/20 15:08:17;;;;;;;25.10;15.63;;;-1.10;99.90;;;;;;6236764;23;20393;-75
2023/01/20 15:10:45;;;;;;;30.73;17.47;;;-1.10;99.90;;;;;;6236417;23;20433;-76
2023/01/20 15:13:30;;;;;;;31.70;16.27;;;-1.10;99.90;;;;;;6238243;23;21069;-78
2023/01/20 15:16:15;;;;;;;26.40;15.17;;;-1.00;99.90;;;;;;6236160;23;20671;-76
2023/01/20 15:18:42;;;;;;;34.10;18.37;;;-1.10;99.90;;;;;;6235004;23;20401;-75
2023/01/20 15:21:21;;;;;;;29.07;15.10;;;-1.00;99.90;;;;;;6234866;23;20974;-75
2023/01/20 15:23:51;;;;;;;31.13;18.37;;;-1.20;99.90;;;;;;6234400;23;20472;-76
2023/01/20 15:26:24;;;;;;;30.30;18.37;;;-1.10;99.90;;;;;;6234146;23;20483;-75
2023/01/20 15:28:51;;;;;;;31.53;16.27;;;-1.10;99.90;;;;;;6236179;23;20714;-78
2023/01/20 15:31:19;;;;;;;31.40;18.20;;;-1.00;99.90;;;;;;6239980;23;20598;-75
2023/01/20 15:33:46;;;;;;;32.60;19.00;;;-1.10;99.90;;;;;;6239349;23;20749;-76
2023/01/20 15:36:26;;;;;;;31.37;17.70;;;-1.10;99.90;;;;;;6236060;23;20413;-73
2023/01/20 15:38:53;;;;;;;37.87;18.30;;;-1.00;99.90;;;;;;6237101;23;20882;-73
2023/01/20 15:41:20;;;;;;;32.07;18.30;;;-1.00;99.90;;;;;;6239942;23;20415;-73
2023/01/20 15:43:48;;;;;;;29.80;17.20;;;-1.10;99.90;;;;;;6238086;23;20429;-73
2023/01/20 15:46:16;;;;;;;27.77;17.33;;;-1.10;99.90;;;;;;6236014;23;20421;-74
2023/01/20 15:48:45;;;;;;;28.97;17.77;;;-1.00;99.90;;;;;;6232816;23;20776;-73
2023/01/20 15:51:15;;;;;;;29.30;18.00;;;-1.00;99.90;;;;;;6235283;23;20459;-73
2023/01/20 15:53:43;;;;;;;33.70;19.87;;;-1.00;99.90;;;;;;6235173;23;20453;-74
2023/01/20 15:56:16;;;;;;;29.67;18.73;;;-1.00;99.90;;;;;;6236532;23;20423;-73
2023/01/20 15:58:43;;;;;;;30.63;17.30;;;-1.10;99.90;;;;;;6235768;23;20405;-76
2023/01/20 16:01:14;;;;;;;35.20;18.60;;;-1.10;99.90;;;;;;6234923;23;20755;-74
2023/01/20 16:03:41;;;;;;;33.20;17.30;;;-1.00;99.90;;;;;;6236037;23;20429;-72
2023/01/20 16:06:13;;;;;;;33.30;18.60;;;-1.00;99.90;;;;;;6238089;23;20386;-73
2023/01/20 16:08:40;;;;;;;30.20;17.60;;;-1.00;99.90;;;;;;6245680;23;21066;-73
2023/01/20 16:11:07;;;;;;;31.87;20.20;;;-1.00;99.90;;;;;;6235603;23;20457;-72
2023/01/20 16:13:35;;;;;;;34.80;17.63;;;-1.00;99.90;;;;;;6234964;23;20419;-72
2023/01/20 16:16:02;;;;;;;32.77;20.60;;;-1.00;99.90;;;;;;6235337;23;20849;-73
2023/01/20 16:18:29;;;;;;;34.77;20.47;;;-1.10;99.90;;;;;;6234586;23;20413;-73
2023/01/20 16:20:56;;;;;;;35.30;18.40;;;-1.10;99.90;;;;;;6234174;23;20870;-73
2023/01/20 16:23:25;;;;;;;34.03;19.27;;;-1.20;99.90;;;;;;6232532;23;20672;-73
2023/01/20 16:36:13;;;;;;;40.30;21.27;;;-1.20;99.90;;;;;;6210538;22;20446;-86
2023/01/20 16:38:41;;;;;;;33.23;19.10;;;-1.10;99.90;;;;;;6241725;22;20488;-80
2023/01/20 16:41:15;;;;;;;37.13;19.60;;;-1.20;99.90;;;;;;6250797;23;20423;-81
2023/01/20 16:43:42;;;;;;;38.73;20.30;;;-1.00;99.90;;;;;;6249769;23;20398;-80
2023/01/20 16:46:13;;;;;;;41.53;22.37;;;-1.20;99.90;;;;;;6247464;23;20402;-81
2023/01/20 16:48:40;;;;;;;33.00;18.73;;;-0.80;99.90;;;;;;6246936;23;20982;-81
2023/01/20 16:51:06;;;;;;;35.50;21.00;;;-1.30;99.90;;;;;;6248068;23;20453;-80
2023/01/20 16:53:33;;;;;;;33.87;19.10;;;-0.70;99.90;;;;;;6247560;23;20417;-80
2023/01/20 16:56:02;;;;;;;32.33;19.57;;;-1.10;99.90;;;;;;6249990;22;20421;-80
2023/01/20 16:58:29;;;;;;;37.43;21.27;;;-1.10;99.90;;;;;;6237942;22;20462;-80
2023/01/20 17:00:56;;;;;;;39.20;20.43;;;-0.70;99.90;;;;;;6260475;22;20393;-80
2023/01/20 17:03:25;;;;;;;36.50;19.50;;;-1.00;99.90;;;;;;6232914;22;21920;-80
2023/01/20 17:05:55;;;;;;;31.57;18.40;;;-1.00;99.90;;;;;;6267286;22;20457;-87
2023/01/20 17:08:22;;;;;;;33.80;18.80;;;-1.10;99.90;;;;;;6255800;22;20412;-84
2023/01/20 17:10:49;;;;;;;37.17;23.00;;;-0.80;99.90;;;;;;6250251;22;20949;-79
2023/01/20 17:13:17;;;;;;;37.80;19.87;;;-0.90;99.90;;;;;;6240827;23;20409;-79
2023/01/20 17:15:44;;;;;;;32.13;21.27;;;-0.70;99.90;;;;;;6259320;22;20459;-86
2023/01/20 17:18:11;;;;;;;36.50;17.70;;;-0.90;99.90;;;;;;6227667;22;20500;-79
2023/01/20 17:20:38;;;;;;;34.20;20.80;;;-0.30;99.90;;;;;;6245348;23;20417;-79
2023/01/20 17:23:05;;;;;;;31.50;18.70;;;-0.80;99.90;;;;;;6245254;23;20491;-77
2023/01/20 17:25:32;;;;;;;36.40;19.93;;;-0.90;99.90;;;;;;6239272;23;20439;-78
2023/01/20 17:27:59;;;;;;;32.17;18.90;;;-0.90;99.90;;;;;;6244188;23;20608;-79
2023/01/20 17:30:27;;;;;;;33.20;19.63;;;-0.80;99.90;;;;;;6245704;23;20437;-78
2023/01/20 17:32:54;;;;;;;35.57;17.50;;;-0.90;99.90;;;;;;6245658;23;20414;-80
2023/01/20 17:35:21;;;;;;;36.93;20.73;;;-0.40;99.90;;;;;;6240857;23;20415;-79
2023/01/20 17:37:48;;;;;;;35.60;18.47;;;-0.80;99.90;;;;;;6247399;23;20414;-79
2023/01/20 17:40:15;;;;;;;40.30;20.67;;;-0.50;99.90;;;;;;6241582;23;20879;-80
2023/01/20 17:42:43;;;;;;;33.60;18.90;;;-0.60;99.90;;;;;;6265431;22;20432;-89
2023/01/20 17:45:11;;;;;;;32.50;17.33;;;-0.70;99.90;;;;;;6265048;22;20413;-80
2023/01/20 18:26:28;;;;;;;37.50;20.20;;;-0.60;99.90;;;;;;6260498;22;20472;-86
2023/01/20 18:54:51;;;;;;;35.23;17.20;;;-1.00;99.90;;;;;;6222255;22;20434;-88
2023/01/20 19:02:28;;;;;;;34.17;19.67;;;-0.40;99.90;;;;;;6208955;22;20460;-79
2023/01/20 19:04:55;;;;;;;32.83;18.40;;;-1.30;99.90;;;;;;6239060;23;20424;-79